Time;durP1;ratioP1;P1;durP2;ratioP2;P2;SDS_P1;SDS_P2;PMS_P1;PMS_P2;Temp;Humidity;BMP_temperature;BMP_pressure;BME280_temperature;BME280_humidity;BME280_pressure;Samples;Min_cycle;Max_cycle;Signal;HPM_P1;HPM_P2
2022/08/28 00:00:11;;;;;;;17.17;9.23;;;17.60;97.70;;;;;;5075095;28;20216;-61
2022/08/28 00:02:37;;;;;;;10.40;8.43;;;17.60;97.70;;;;;;5094249;28;20184;-61
2022/08/28 00:05:05;;;;;;;12.30;9.23;;;17.60;97.70;;;;;;5112313;28;20195;-61
2022/08/28 00:07:30;;;;;;;13.27;9.47;;;17.60;97.70;;;;;;5075172;28;20181;-61
2022/08/28 00:09:56;;;;;;;13.27;9.43;;;17.60;97.70;;;;;;5063540;28;20215;-61
2022/08/28 00:12:22;;;;;;;13.60;9.13;;;17.70;97.70;;;;;;5086454;28;20188;-61
2022/08/28 00:14:47;;;;;;;13.03;8.73;;;17.70;97.70;;;;;;5061303;28;20230;-61
2022/08/28 00:17:13;;;;;;;12.50;8.97;;;17.70;97.70;;;;;;5078070;28;20278;-61
2022/08/28 00:19:39;;;;;;;11.10;9.20;;;17.70;97.70;;;;;;5095468;28;20211;-61
2022/08/28 00:22:06;;;;;;;12.27;9.30;;;17.70;97.70;;;;;;5056789;28;20284;-61
2022/08/28 00:24:33;;;;;;;11.23;8.93;;;17.80;97.70;;;;;;5106266;28;20196;-61
2022/08/28 00:29:43;;;;;;;13.97;9.27;;;17.80;97.70;;;;;;5080811;28;20211;-61
2022/08/28 00:32:08;;;;;;;11.63;9.17;;;17.70;97.70;;;;;;5058691;28;20185;-61
2022/08/28 00:34:34;;;;;;;10.67;9.03;;;17.70;97.70;;;;;;5075828;28;20275;-61
2022/08/28 00:37:00;;;;;;;13.27;9.27;;;17.70;97.70;;;;;;5073929;28;20209;-61
2022/08/28 00:39:26;;;;;;;9.60;8.70;;;17.60;97.70;;;;;;5116260;28;20180;-61
2022/08/28 00:41:51;;;;;;;9.53;8.00;;;17.60;97.70;;;;;;5071829;28;20216;-61
2022/08/28 00:44:21;;;;;;;10.27;8.73;;;17.50;97.70;;;;;;5089332;28;20189;-61
2022/08/28 00:46:49;;;;;;;15.63;8.30;;;17.50;97.70;;;;;;5096170;28;20185;-61
2022/08/28 00:49:16;;;;;;;11.27;8.40;;;17.50;97.60;;;;;;5094334;28;20192;-61
2022/08/28 00:54:29;;;;;;;11.57;8.87;;;17.40;97.60;;;;;;5097996;28;20192;-61
2022/08/28 00:56:56;;;;;;;12.20;9.13;;;17.40;97.60;;;;;;5094232;28;20208;-61
2022/08/28 00:59:24;;;;;;;11.07;8.57;;;17.40;97.60;;;;;;5094290;28;20177;-61
2022/08/28 01:01:54;;;;;;;9.87;8.50;;;17.30;97.60;;;;;;5080155;28;20200;-61
2022/08/28 01:04:22;;;;;;;12.40;8.13;;;17.30;97.60;;;;;;5093389;28;20184;-61
2022/08/28 01:06:52;;;;;;;9.67;8.00;;;17.30;97.60;;;;;;5111373;28;20191;-60
2022/08/28 01:09:19;;;;;;;8.77;7.40;;;17.30;97.60;;;;;;5091840;28;20193;-61
2022/08/28 01:11:47;;;;;;;14.37;8.10;;;17.20;97.60;;;;;;5083249;28;20196;-60
2022/08/28 01:14:14;;;;;;;10.57;8.63;;;17.20;97.60;;;;;;5093752;28;20250;-61
2022/08/28 01:16:42;;;;;;;13.20;9.53;;;17.20;97.60;;;;;;5093786;28;20189;-60
2022/08/28 01:19:17;;;;;;;10.33;8.63;;;17.20;97.60;;;;;;5093039;28;20218;-60
2022/08/28 01:21:55;;;;;;;13.17;7.70;;;17.20;97.60;;;;;;5107897;28;20184;-61
2022/08/28 01:24:21;;;;;;;13.37;8.13;;;17.10;97.60;;;;;;5104269;28;20181;-60
2022/08/28 01:26:46;;;;;;;8.83;7.47;;;17.00;97.60;;;;;;5083649;28;20266;-60
2022/08/28 01:29:12;;;;;;;10.83;7.60;;;17.00;97.60;;;;;;5078049;28;20193;-60
2022/08/28 01:31:40;;;;;;;11.17;7.93;;;17.00;97.60;;;;;;5098246;28;20184;-61
2022/08/28 01:34:09;;;;;;;11.50;8.33;;;17.00;97.60;;;;;;5081082;27;20193;-61
2022/08/28 01:36:35;;;;;;;12.93;8.63;;;17.00;97.60;;;;;;5105472;28;20181;-60
2022/08/28 01:39:10;;;;;;;13.07;8.13;;;17.00;97.60;;;;;;5085188;28;20212;-60
2022/08/28 01:41:45;;;;;;;8.33;7.23;;;17.00;97.60;;;;;;5106463;28;20192;-60
2022/08/28 01:44:12;;;;;;;12.37;8.50;;;17.00;97.60;;;;;;5096944;28;20192;-60
2022/08/28 01:46:40;;;;;;;12.27;9.30;;;17.00;97.60;;;;;;5087687;28;20212;-60
2022/08/28 01:49:10;;;;;;;12.70;8.23;;;16.90;97.50;;;;;;5115440;28;20180;-60
2022/08/28 01:51:37;;;;;;;9.57;8.00;;;16.90;97.60;;;;;;5096339;28;20181;-61
2022/08/28 01:54:03;;;;;;;11.67;7.80;;;16.90;97.60;;;;;;5097053;28;20189;-60
2022/08/28 01:56:29;;;;;;;11.23;7.70;;;16.90;97.60;;;;;;5079822;28;20193;-60
2022/08/28 01:58:54;;;;;;;11.33;8.17;;;16.80;97.60;;;;;;5076562;28;20285;-60
2022/08/28 02:01:21;;;;;;;10.17;7.73;;;16.80;97.50;;;;;;5091542;28;20192;-60
2022/08/28 02:03:47;;;;;;;11.70;8.23;;;16.90;97.50;;;;;;5104099;28;20203;-60
2022/08/28 02:06:14;;;;;;;11.63;8.13;;;16.90;97.50;;;;;;5077161;28;20192;-61
2022/08/28 02:08:41;;;;;;;9.40;8.20;;;16.90;97.50;;;;;;5087856;27;20261;-60
2022/08/28 02:11:08;;;;;;;12.17;8.20;;;16.80;97.50;;;;;;5095405;28;20262;-60
2022/08/28 02:13:38;;;;;;;8.83;7.80;;;16.90;97.50;;;;;;5087529;28;20181;-60
2022/08/28 02:16:06;;;;;;;13.30;8.70;;;17.00;97.50;;;;;;5102177;27;20180;-61
2022/08/28 02:18:32;;;;;;;9.27;8.07;;;16.90;97.50;;;;;;5101227;28;20178;-60
2022/08/28 02:20:58;;;;;;;9.73;8.53;;;16.80;97.50;;;;;;5092050;28;20254;-60
2022/08/28 02:23:23;;;;;;;8.73;7.73;;;16.90;97.50;;;;;;5079864;28;20188;-60
2022/08/28 02:25:49;;;;;;;8.03;7.10;;;16.90;97.50;;;;;;5058405;27;20195;-62
2022/08/28 02:28:15;;;;;;;11.27;8.37;;;16.80;97.50;;;;;;5081373;28;20342;-60
2022/08/28 02:30:40;;;;;;;8.93;8.03;;;16.80;97.50;;;;;;5057860;28;20213;-60
2022/08/28 02:33:06;;;;;;;11.90;7.43;;;16.80;97.50;;;;;;5095507;28;20196;-60
2022/08/28 02:35:32;;;;;;;8.83;7.20;;;16.80;97.50;;;;;;5086123;28;20188;-60
2022/08/28 02:37:58;;;;;;;11.10;7.60;;;16.80;97.50;;;;;;5095009;28;20223;-60
2022/08/28 02:40:24;;;;;;;10.03;8.37;;;16.80;97.50;;;;;;5096381;28;20234;-60
2022/08/28 02:42:51;;;;;;;11.83;9.30;;;16.80;97.50;;;;;;5077995;28;20192;-60
2022/08/28 02:45:18;;;;;;;11.77;8.07;;;16.90;97.50;;;;;;5096005;27;20195;-60
2022/08/28 02:47:46;;;;;;;11.17;7.70;;;16.90;97.50;;;;;;5100676;28;20180;-60
2022/08/28 02:50:16;;;;;;;8.77;7.53;;;16.90;97.50;;;;;;5081370;28;20212;-60
2022/08/28 02:52:42;;;;;;;8.73;7.83;;;16.80;97.50;;;;;;5079936;28;20181;-60
2022/08/28 02:55:11;;;;;;;9.93;7.93;;;16.90;97.50;;;;;;5096137;28;20181;-60
2022/08/28 02:57:37;;;;;;;10.43;7.63;;;16.90;97.50;;;;;;5068408;28;20189;-60
2022/08/28 03:00:10;;;;;;;8.20;7.50;;;16.80;97.50;;;;;;5078067;27;20184;-60
2022/08/28 03:02:37;;;;;;;10.60;8.43;;;16.80;97.50;;;;;;5102850;28;20192;-60
2022/08/28 03:05:03;;;;;;;12.27;9.23;;;16.80;97.50;;;;;;5095550;28;20208;-60
2022/08/28 03:07:29;;;;;;;10.33;9.17;;;16.80;97.50;;;;;;5095496;28;20275;-60
2022/08/28 03:09:55;;;;;;;14.23;9.80;;;16.80;97.50;;;;;;5079533;27;20322;-60
2022/08/28 03:12:22;;;;;;;11.20;10.00;;;16.80;97.50;;;;;;5080015;28;20196;-60
2022/08/28 03:14:50;;;;;;;10.10;9.10;;;16.80;97.50;;;;;;5066327;27;20257;-60
2022/08/28 03:17:16;;;;;;;9.80;8.80;;;16.90;97.50;;;;;;5119097;27;20184;-60
2022/08/28 03:19:42;;;;;;;10.77;8.30;;;16.80;97.50;;;;;;5089467;28;20181;-60
2022/08/28 03:22:08;;;;;;;10.73;9.13;;;16.80;97.50;;;;;;5086761;28;20192;-60
2022/08/28 03:24:33;;;;;;;16.70;8.53;;;16.70;97.50;;;;;;5075495;28;20181;-60
2022/08/28 03:27:00;;;;;;;11.50;8.60;;;16.70;97.50;;;;;;5112607;28;20299;-60
2022/08/28 03:29:26;;;;;;;8.53;7.63;;;16.70;97.40;;;;;;5100798;28;20240;-60
2022/08/28 03:31:52;;;;;;;10.57;7.80;;;16.70;97.40;;;;;;5094181;28;20180;-60
2022/08/28 03:34:18;;;;;;;9.37;8.47;;;16.60;97.40;;;;;;5094842;28;20193;-60
2022/08/28 03:36:43;;;;;;;11.63;8.47;;;16.60;97.40;;;;;;5082644;28;20191;-60
2022/08/28 03:39:09;;;;;;;13.97;9.00;;;16.50;97.40;;;;;;5068666;27;20344;-60
2022/08/28 03:41:35;;;;;;;12.13;9.33;;;16.50;97.40;;;;;;5077414;28;20211;-60
2022/08/28 03:44:02;;;;;;;15.20;9.77;;;16.50;97.30;;;;;;5077972;28;20192;-60
2022/08/28 03:46:31;;;;;;;13.27;9.13;;;16.50;97.40;;;;;;5099421;28;20184;-60
2022/08/28 03:48:58;;;;;;;10.90;9.13;;;16.50;97.40;;;;;;5096555;28;20191;-60
2022/08/28 03:51:27;;;;;;;14.83;9.00;;;16.50;97.40;;;;;;5096904;28;20223;-60
2022/08/28 03:53:53;;;;;;;10.80;8.40;;;16.50;97.30;;;;;;5094993;28;20226;-61
2022/08/28 03:56:22;;;;;;;12.87;8.83;;;16.50;97.30;;;;;;5101457;28;20223;-60
2022/08/28 03:58:51;;;;;;;11.33;8.87;;;16.50;97.30;;;;;;5093934;28;20188;-61
2022/08/28 04:01:17;;;;;;;10.50;9.07;;;16.40;97.30;;;;;;5091878;28;20194;-60
2022/08/28 04:03:43;;;;;;;12.00;10.17;;;16.40;97.30;;;;;;5094639;28;20187;-60
2022/08/28 04:06:09;;;;;;;14.97;9.77;;;16.50;97.30;;;;;;5069010;28;20192;-60
2022/08/28 04:08:35;;;;;;;14.07;9.40;;;16.40;97.30;;;;;;5082410;28;20188;-60
2022/08/28 04:11:01;;;;;;;9.80;8.80;;;16.40;97.30;;;;;;5076118;28;20216;-60
2022/08/28 04:13:28;;;;;;;11.63;9.00;;;16.30;97.30;;;;;;5075813;28;20189;-60
2022/08/28 04:16:03;;;;;;;11.63;9.67;;;16.30;97.30;;;;;;5092896;28;20233;-60
2022/08/28 04:18:30;;;;;;;12.33;10.97;;;16.40;97.30;;;;;;5104284;28;20189;-60
2022/08/28 04:21:09;;;;;;;15.07;11.90;;;16.40;97.30;;;;;;5090475;28;20217;-60
2022/08/28 04:23:37;;;;;;;14.87;11.70;;;16.50;97.40;;;;;;5111746;28;20216;-60
2022/08/28 04:26:07;;;;;;;17.50;11.93;;;16.60;97.50;;;;;;5111194;28;20183;-60
2022/08/28 04:28:33;;;;;;;12.43;10.57;;;16.70;97.50;;;;;;5094992;28;20314;-60
2022/08/28 04:30:59;;;;;;;12.70;10.53;;;16.70;97.50;;;;;;5077427;28;20247;-60
2022/08/28 04:33:26;;;;;;;13.17;9.50;;;16.70;97.40;;;;;;5064296;28;20212;-60
2022/08/28 04:35:52;;;;;;;12.03;9.50;;;16.60;97.40;;;;;;5077702;28;20188;-60
2022/08/28 04:38:18;;;;;;;12.27;9.83;;;16.60;97.40;;;;;;5113214;28;20180;-60
2022/08/28 04:40:44;;;;;;;12.03;9.90;;;16.50;97.30;;;;;;5118220;28;20189;-60
2022/08/28 04:43:10;;;;;;;10.90;9.57;;;16.40;97.30;;;;;;5077463;28;20184;-60
2022/08/28 04:45:40;;;;;;;13.30;10.37;;;16.40;97.30;;;;;;5096045;28;20192;-60
2022/08/28 04:48:06;;;;;;;13.60;9.67;;;16.40;97.30;;;;;;5076992;28;20201;-60
2022/08/28 04:50:33;;;;;;;10.90;8.90;;;16.30;97.30;;;;;;5094132;28;20201;-60
2022/08/28 04:52:58;;;;;;;10.73;9.40;;;16.30;97.30;;;;;;5078348;28;20199;-61
2022/08/28 04:55:24;;;;;;;11.30;9.83;;;16.30;97.30;;;;;;5060560;28;20185;-60
2022/08/28 04:57:50;;;;;;;11.47;10.27;;;16.30;97.30;;;;;;5080889;28;20241;-60
2022/08/28 05:00:15;;;;;;;14.27;10.77;;;16.30;97.30;;;;;;5089802;28;20203;-61
2022/08/28 05:02:41;;;;;;;14.40;9.90;;;16.30;97.30;;;;;;5082713;28;20200;-60
2022/08/28 05:05:07;;;;;;;11.03;9.83;;;16.20;97.30;;;;;;5096573;28;20192;-60
2022/08/28 05:07:33;;;;;;;13.57;10.73;;;16.20;97.30;;;;;;5083605;28;20275;-60
2022/08/28 05:09:59;;;;;;;14.30;10.57;;;16.20;97.30;;;;;;5068471;28;20276;-60
2022/08/28 05:12:25;;;;;;;13.60;10.63;;;16.20;97.30;;;;;;5069685;28;20188;-60
2022/08/28 05:14:51;;;;;;;12.43;9.87;;;16.20;97.30;;;;;;5102690;28;20239;-60
2022/08/28 05:17:17;;;;;;;14.77;10.57;;;16.20;97.30;;;;;;5082878;28;20184;-60
2022/08/28 05:19:42;;;;;;;14.17;11.00;;;16.20;97.30;;;;;;5085821;27;20209;-60
2022/08/28 05:22:09;;;;;;;17.00;10.20;;;16.20;97.20;;;;;;5103972;27;20204;-60
2022/08/28 05:24:36;;;;;;;12.83;10.70;;;16.20;97.30;;;;;;5108616;27;20193;-60
2022/08/28 05:27:02;;;;;;;23.73;11.93;;;16.20;97.30;;;;;;5077737;28;20232;-60
2022/08/28 05:29:28;;;;;;;12.17;10.90;;;16.30;97.30;;;;;;5101431;27;20212;-60
2022/08/28 05:31:54;;;;;;;13.10;10.40;;;16.20;97.30;;;;;;5076418;28;20215;-60
2022/08/28 05:34:20;;;;;;;13.50;10.47;;;16.30;97.30;;;;;;5091896;28;20223;-60
2022/08/28 05:36:45;;;;;;;16.53;10.93;;;16.20;97.30;;;;;;5088632;28;20185;-60
2022/08/28 05:39:12;;;;;;;15.67;11.03;;;16.30;97.30;;;;;;5074981;28;20195;-60
2022/08/28 05:41:40;;;;;;;15.23;10.70;;;16.30;97.30;;;;;;5089349;28;20234;-60
2022/08/28 05:44:09;;;;;;;13.43;11.40;;;16.30;97.30;;;;;;5097734;28;20192;-60
2022/08/28 05:46:38;;;;;;;13.23;11.33;;;16.30;97.30;;;;;;5105471;28;20185;-60
2022/08/28 05:49:06;;;;;;;15.57;12.37;;;16.40;97.30;;;;;;5084012;28;20192;-61
2022/08/28 05:51:33;;;;;;;13.17;11.10;;;16.40;97.40;;;;;;5095938;28;20200;-60
2022/08/28 05:53:58;;;;;;;16.87;13.37;;;16.50;97.40;;;;;;5090907;28;20275;-60
2022/08/28 05:56:28;;;;;;;14.90;12.23;;;16.60;97.40;;;;;;5091140;28;20267;-60
2022/08/28 05:58:54;;;;;;;21.47;12.40;;;16.70;97.50;;;;;;5094042;28;20209;-60
2022/08/28 06:01:27;;;;;;;14.17;11.53;;;16.70;97.40;;;;;;5054529;28;20181;-60
2022/08/28 06:03:59;;;;;;;15.87;11.23;;;16.70;97.50;;;;;;5097966;28;20189;-60
2022/08/28 06:06:28;;;;;;;13.20;10.97;;;16.80;97.50;;;;;;5096272;28;20189;-60
2022/08/28 06:09:12;;;;;;;15.80;12.43;;;16.80;97.50;;;;;;5096995;28;20227;-60
2022/08/28 06:11:38;;;;;;;14.30;12.80;;;16.90;97.50;;;;;;5109863;27;20234;-60
2022/08/28 06:14:09;;;;;;;16.50;13.37;;;17.00;97.50;;;;;;5084982;28;20199;-60
2022/08/28 06:16:38;;;;;;;16.43;12.20;;;17.00;97.60;;;;;;5079771;28;20190;-60
2022/08/28 06:19:04;;;;;;;14.77;12.00;;;17.10;97.50;;;;;;5097466;28;20256;-61
2022/08/28 06:21:30;;;;;;;21.47;12.50;;;17.20;97.60;;;;;;5074415;28;20185;-60
2022/08/28 06:23:56;;;;;;;16.60;12.00;;;17.20;97.60;;;;;;5090562;28;20187;-60
2022/08/28 06:26:22;;;;;;;13.83;12.37;;;17.20;97.60;;;;;;5062384;28;20271;-60
2022/08/28 06:28:48;;;;;;;14.53;11.73;;;17.20;97.60;;;;;;5079928;28;20204;-61
2022/08/28 06:31:13;;;;;;;17.63;13.67;;;17.30;97.60;;;;;;5089047;28;20204;-61
2022/08/28 06:33:39;;;;;;;14.37;12.33;;;17.40;97.60;;;;;;5063175;28;20192;-61
2022/08/28 06:36:06;;;;;;;13.67;11.90;;;17.40;97.70;;;;;;5061495;28;20340;-61
2022/08/28 06:38:32;;;;;;;13.70;12.20;;;17.50;97.70;;;;;;5088569;28;20204;-61
2022/08/28 06:40:58;;;;;;;15.30;12.23;;;17.50;97.70;;;;;;5097392;28;20212;-60
2022/08/28 06:43:26;;;;;;;12.83;11.43;;;17.70;97.70;;;;;;5086334;27;20199;-60
2022/08/28 06:45:53;;;;;;;14.27;11.27;;;17.60;97.70;;;;;;5075979;28;20190;-61
2022/08/28 06:48:22;;;;;;;15.47;12.40;;;17.70;97.70;;;;;;5092478;28;20328;-60
2022/08/28 06:50:51;;;;;;;16.13;12.93;;;17.80;97.70;;;;;;5093919;28;20261;-60
2022/08/28 06:53:19;;;;;;;16.53;12.47;;;17.80;97.70;;;;;;5079340;28;20194;-60
2022/08/28 06:55:54;;;;;;;18.73;13.57;;;17.80;97.70;;;;;;5081307;28;20185;-60
2022/08/28 06:58:19;;;;;;;13.60;11.97;;;17.90;97.70;;;;;;5077067;28;20213;-60
2022/08/28 07:00:45;;;;;;;16.20;12.77;;;17.90;97.70;;;;;;5076534;28;20184;-60
2022/08/28 07:03:12;;;;;;;14.10;12.60;;;18.00;97.80;;;;;;5063592;28;20246;-60
2022/08/28 07:05:38;;;;;;;15.50;12.67;;;18.00;97.70;;;;;;5090633;28;20199;-61
2022/08/28 07:08:03;;;;;;;19.27;13.57;;;18.10;97.80;;;;;;5057476;28;20189;-61
2022/08/28 07:10:30;;;;;;;22.37;14.37;;;18.20;97.80;;;;;;5083060;28;20212;-61
2022/08/28 07:12:56;;;;;;;20.27;15.37;;;18.20;97.80;;;;;;5094336;28;20189;-58
2022/08/28 07:15:22;;;;;;;17.57;14.17;;;18.20;97.80;;;;;;5087928;28;20188;-57
2022/08/28 07:17:47;;;;;;;21.50;14.73;;;18.30;97.80;;;;;;5081984;27;20184;-57
2022/08/28 07:20:13;;;;;;;18.80;13.47;;;18.30;97.80;;;;;;5098500;27;20199;-57
2022/08/28 07:22:42;;;;;;;20.13;14.43;;;18.40;97.80;;;;;;5086092;28;20318;-58
2022/08/28 07:25:10;;;;;;;17.17;13.90;;;18.50;97.80;;;;;;5081992;28;20196;-60
2022/08/28 07:27:37;;;;;;;18.63;14.10;;;18.60;97.90;;;;;;5093648;28;20238;-60
2022/08/28 07:30:05;;;;;;;19.50;15.10;;;18.60;97.90;;;;;;5062337;28;20295;-60
2022/08/28 07:32:32;;;;;;;17.00;13.77;;;18.70;97.90;;;;;;5083479;28;20241;-60
2022/08/28 07:34:58;;;;;;;17.77;13.60;;;18.70;97.90;;;;;;5074324;28;20262;-60
2022/08/28 07:37:25;;;;;;;22.50;16.63;;;18.80;97.90;;;;;;5078983;28;20217;-60
2022/08/28 07:39:51;;;;;;;18.90;14.97;;;18.80;97.90;;;;;;5089295;28;20279;-60
2022/08/28 07:44:48;;;;;;;20.03;14.27;;;18.90;97.90;;;;;;5095965;28;20326;-60
2022/08/28 07:45:02;;;;;;;21.47;16.90;;;18.90;97.90;;;;;;5096690;27;20196;-61
2022/08/28 07:47:32;;;;;;;22.50;16.50;;;19.00;97.90;;;;;;5045307;28;20189;-60
2022/08/28 07:50:00;;;;;;;18.37;14.93;;;19.00;97.90;;;;;;5092588;28;20204;-61
2022/08/28 07:52:27;;;;;;;19.90;15.63;;;19.10;97.90;;;;;;5095627;28;20184;-61
2022/08/28 07:54:53;;;;;;;16.93;13.70;;;19.20;97.90;;;;;;5079933;28;20193;-60
2022/08/28 07:57:20;;;;;;;18.43;14.93;;;19.20;97.90;;;;;;5086969;28;20169;-60
2022/08/28 07:59:46;;;;;;;16.23;14.47;;;19.20;97.90;;;;;;5077955;28;20192;-61
2022/08/28 08:02:12;;;;;;;16.93;14.07;;;19.10;97.90;;;;;;5094096;28;20243;-60
2022/08/28 08:04:39;;;;;;;14.57;13.00;;;19.10;97.90;;;;;;5093193;28;20183;-60
2022/08/28 08:07:05;;;;;;;15.47;13.50;;;19.20;97.90;;;;;;5068510;28;20203;-60
2022/08/28 08:09:34;;;;;;;16.90;14.73;;;19.20;97.90;;;;;;5078642;28;20184;-60
2022/08/28 08:12:00;;;;;;;15.07;13.50;;;19.10;97.80;;;;;;5081254;28;20199;-60
2022/08/28 08:14:26;;;;;;;14.03;12.53;;;19.20;97.80;;;;;;5078654;28;20188;-61
2022/08/28 08:16:52;;;;;;;16.47;14.13;;;19.20;97.90;;;;;;5061018;28;20193;-60
2022/08/28 08:19:19;;;;;;;15.23;13.50;;;19.20;97.80;;;;;;5074939;28;20184;-60
2022/08/28 08:21:47;;;;;;;15.13;13.60;;;19.30;97.90;;;;;;5054615;28;20288;-60
2022/08/28 08:24:19;;;;;;;15.43;13.33;;;19.30;97.80;;;;;;5094220;28;20183;-60
2022/08/28 08:26:48;;;;;;;14.60;13.13;;;19.30;97.90;;;;;;5063145;28;20228;-60
2022/08/28 08:29:15;;;;;;;16.27;14.53;;;19.30;97.90;;;;;;5081917;28;20242;-60
2022/08/28 08:31:41;;;;;;;17.83;14.53;;;19.40;97.90;;;;;;5090003;28;20208;-61
2022/08/28 08:34:07;;;;;;;18.93;15.27;;;19.50;97.90;;;;;;5077294;28;20209;-61
2022/08/28 08:36:36;;;;;;;21.43;16.73;;;19.70;98.00;;;;;;5098559;28;20175;-60
2022/08/28 08:39:04;;;;;;;18.50;15.93;;;19.80;98.00;;;;;;5090657;28;20196;-60
2022/08/28 08:41:32;;;;;;;16.10;14.37;;;19.80;98.00;;;;;;5082364;28;20210;-60
2022/08/28 08:44:19;;;;;;;17.33;14.13;;;19.80;98.00;;;;;;5085121;28;20192;-61
2022/08/28 08:46:59;;;;;;;16.07;14.37;;;19.70;97.90;;;;;;5104476;27;20188;-61
2022/08/28 08:49:30;;;;;;;19.43;14.43;;;19.80;97.90;;;;;;5098479;28;20206;-59
2022/08/28 08:52:14;;;;;;;15.33;13.73;;;19.80;97.90;;;;;;5090182;28;20256;-61
2022/08/28 08:54:42;;;;;;;14.93;13.33;;;19.80;97.90;;;;;;5090988;28;20181;-60
2022/08/28 08:57:11;;;;;;;14.73;13.20;;;19.90;98.00;;;;;;5082078;28;20190;-60
2022/08/28 08:59:38;;;;;;;16.60;14.53;;;20.00;98.00;;;;;;5112476;28;20191;-60
2022/08/28 09:02:16;;;;;;;16.60;14.67;;;20.00;98.00;;;;;;5082057;28;20191;-60
2022/08/28 09:04:51;;;;;;;15.87;14.23;;;20.10;98.00;;;;;;5097576;28;20245;-60
2022/08/28 09:07:17;;;;;;;18.03;14.63;;;20.10;98.00;;;;;;5096822;28;20204;-60
2022/08/28 09:09:54;;;;;;;17.33;14.60;;;20.20;98.00;;;;;;5100344;27;20290;-60
2022/08/28 09:12:26;;;;;;;18.27;14.57;;;20.30;98.00;;;;;;5098600;28;20184;-60
2022/08/28 09:15:08;;;;;;;14.97;13.43;;;20.40;98.00;;;;;;5099379;27;20273;-60
2022/08/28 09:18:11;;;;;;;13.57;12.20;;;20.40;98.00;;;;;;5100338;28;20277;-60
2022/08/28 09:20:37;;;;;;;13.50;12.20;;;20.20;97.90;;;;;;5055165;28;20234;-60
2022/08/28 09:23:03;;;;;;;15.90;12.73;;;20.20;97.90;;;;;;5100683;27;20190;-60
2022/08/28 09:25:49;;;;;;;13.23;11.77;;;20.30;98.00;;;;;;5099325;28;20185;-60
2022/08/28 09:28:26;;;;;;;15.57;13.70;;;20.30;98.00;;;;;;5098254;27;20223;-60
2022/08/28 09:31:32;;;;;;;13.47;11.50;;;20.50;98.00;;;;;;5098250;28;20212;-60
2022/08/28 09:34:16;;;;;;;12.80;11.50;;;20.60;98.00;;;;;;5112916;27;20214;-60
2022/08/28 09:36:41;;;;;;;12.53;11.27;;;20.50;97.90;;;;;;5098897;28;20176;-60
2022/08/28 09:39:20;;;;;;;10.97;10.07;;;20.40;97.90;;;;;;5080581;28;20185;-60
2022/08/28 09:44:52;;;;;;;12.63;11.33;;;20.30;97.70;;;;;;5115866;28;20262;-60
2022/08/28 09:47:56;;;;;;;13.67;12.03;;;20.30;97.70;;;;;;5103002;28;20191;-60
2022/08/28 09:50:30;;;;;;;13.27;10.70;;;20.30;97.80;;;;;;5112449;27;20211;-60
2022/08/28 09:53:08;;;;;;;12.47;11.17;;;20.40;97.80;;;;;;5078272;28;20184;-60
2022/08/28 09:56:05;;;;;;;11.33;9.30;;;20.50;97.90;;;;;;5113829;27;20185;-60
2022/08/28 09:59:06;;;;;;;13.07;10.03;;;20.30;97.80;;;;;;5090887;28;20180;-60
2022/08/28 10:01:47;;;;;;;10.70;9.67;;;20.30;97.80;;;;;;5036421;28;20190;-60
2022/08/28 10:04:16;;;;;;;10.77;9.00;;;20.30;97.70;;;;;;5096170;28;20197;-60
2022/08/28 10:06:52;;;;;;;11.10;8.77;;;20.20;97.70;;;;;;5098122;27;20192;-60
2022/08/28 10:09:53;;;;;;;9.97;8.43;;;20.10;97.60;;;;;;5097536;28;20188;-60
2022/08/28 10:12:40;;;;;;;9.87;8.87;;;20.20;97.70;;;;;;5083785;28;20192;-60
2022/08/28 10:15:15;;;;;;;10.93;8.33;;;20.20;97.60;;;;;;5096824;28;20234;-60
2022/08/28 10:18:00;;;;;;;7.97;7.17;;;20.20;97.50;;;;;;5114367;27;20180;-58
2022/08/28 10:20:49;;;;;;;8.90;7.30;;;20.10;97.40;;;;;;5099306;28;20188;-58
2022/08/28 10:23:20;;;;;;;8.20;7.50;;;20.20;97.50;;;;;;5098244;28;20180;-58
2022/08/28 10:26:24;;;;;;;9.43;8.53;;;20.20;97.40;;;;;;5096492;28;20180;-60
2022/08/28 10:29:28;;;;;;;10.27;9.10;;;20.20;97.10;;;;;;5086728;27;20214;-61
2022/08/28 10:32:22;;;;;;;11.90;8.97;;;20.40;97.20;;;;;;5080673;27;20199;-60
2022/08/28 10:34:54;;;;;;;10.40;9.30;;;20.50;97.30;;;;;;5115104;27;20208;-60
2022/08/28 10:37:40;;;;;;;10.00;8.70;;;20.70;97.40;;;;;;5123850;27;20270;-60
2022/08/28 10:40:37;;;;;;;11.77;9.80;;;20.80;97.40;;;;;;5090708;28;20184;-60
2022/08/28 10:43:36;;;;;;;8.73;7.80;;;20.80;97.30;;;;;;5105795;28;20212;-60
2022/08/28 10:46:11;;;;;;;9.93;8.93;;;20.80;97.30;;;;;;5042605;28;20207;-61
2022/08/28 10:48:45;;;;;;;10.47;9.30;;;20.80;97.20;;;;;;5087902;28;20191;-60
2022/08/28 10:51:24;;;;;;;11.63;8.87;;;20.90;97.20;;;;;;5096802;27;20207;-60
2022/08/28 10:53:57;;;;;;;10.77;9.67;;;21.00;97.30;;;;;;5096097;28;20196;-60
2022/08/28 10:56:29;;;;;;;12.47;9.77;;;21.00;97.40;;;;;;5089824;27;20197;-60
2022/08/28 10:58:58;;;;;;;11.70;9.73;;;21.10;97.40;;;;;;5113419;27;20201;-60
2022/08/28 11:01:35;;;;;;;10.37;9.03;;;21.10;97.40;;;;;;5110905;28;20202;-60
2022/08/28 11:04:08;;;;;;;8.10;7.37;;;21.10;97.30;;;;;;5099039;28;20205;-60
2022/08/28 11:06:53;;;;;;;9.87;8.40;;;21.00;97.20;;;;;;5106904;27;20199;-60
2022/08/28 11:09:30;;;;;;;8.40;6.73;;;21.00;97.20;;;;;;5092883;28;20185;-60
2022/08/28 11:12:08;;;;;;;7.07;6.40;;;20.90;97.00;;;;;;5114493;28;20188;-60
2022/08/28 11:14:41;;;;;;;8.20;6.50;;;21.00;96.60;;;;;;5109466;28;20270;-60
2022/08/28 11:17:08;;;;;;;10.37;8.00;;;20.90;96.20;;;;;;5095501;28;20184;-60
2022/08/28 11:19:56;;;;;;;13.47;9.03;;;21.00;96.50;;;;;;5090183;28;20230;-60
2022/08/28 11:22:26;;;;;;;8.53;7.73;;;21.10;96.70;;;;;;5084994;28;20188;-60
2022/08/28 11:25:01;;;;;;;11.23;8.33;;;21.20;96.70;;;;;;5097284;28;20215;-60
2022/08/28 11:27:36;;;;;;;8.67;7.73;;;21.50;96.20;;;;;;5095029;28;20300;-60
2022/08/28 11:30:08;;;;;;;7.97;7.00;;;21.40;95.90;;;;;;5097643;28;20207;-60
2022/08/28 11:32:33;;;;;;;9.80;7.60;;;21.30;95.80;;;;;;5104583;28;20190;-60
2022/08/28 11:35:09;;;;;;;7.53;6.37;;;21.40;95.70;;;;;;5105427;28;20185;-60
2022/08/28 11:37:37;;;;;;;7.43;6.30;;;21.50;94.90;;;;;;5093685;28;20188;-60
2022/08/28 11:40:39;;;;;;;7.50;6.70;;;21.80;92.70;;;;;;5088743;28;20210;-60
2022/08/28 11:43:14;;;;;;;6.80;6.10;;;21.70;93.30;;;;;;5089571;28;20198;-60
2022/08/28 11:45:45;;;;;;;7.47;6.80;;;21.80;93.00;;;;;;5100106;28;20180;-60
2022/08/28 11:48:36;;;;;;;6.50;5.40;;;21.90;93.90;;;;;;5088429;28;20199;-60
2022/08/28 11:51:19;;;;;;;13.03;6.93;;;22.00;90.80;;;;;;5100249;28;20203;-60
2022/08/28 11:54:12;;;;;;;7.53;6.80;;;21.80;93.50;;;;;;5110670;28;20179;-60
2022/08/28 11:56:48;;;;;;;10.90;6.77;;;22.10;94.90;;;;;;5092341;28;20220;-60
2022/08/28 11:59:35;;;;;;;8.73;7.10;;;22.20;93.10;;;;;;5121759;27;20188;-60
2022/08/28 12:02:31;;;;;;;8.40;6.53;;;22.30;93.20;;;;;;5087548;28;20216;-60
2022/08/28 12:04:57;;;;;;;9.13;8.23;;;22.30;93.50;;;;;;5087740;28;20187;-61
2022/08/28 12:07:31;;;;;;;8.93;7.77;;;22.50;94.60;;;;;;5068534;28;20191;-61
2022/08/28 12:09:57;;;;;;;6.97;6.27;;;22.70;94.10;;;;;;5094995;28;20208;-61
2022/08/28 12:12:23;;;;;;;8.77;6.73;;;22.90;88.90;;;;;;5079373;28;20203;-61
2022/08/28 12:14:55;;;;;;;7.70;6.90;;;22.80;90.40;;;;;;5095035;28;20180;-61
2022/08/28 12:17:20;;;;;;;6.20;5.60;;;22.90;90.00;;;;;;5112673;28;20184;-60
2022/08/28 12:20:14;;;;;;;7.50;6.80;;;23.00;87.90;;;;;;5094220;28;20187;-60
2022/08/28 12:22:51;;;;;;;8.73;6.90;;;23.10;91.70;;;;;;5107131;28;20256;-61
2022/08/28 12:25:29;;;;;;;7.70;6.40;;;23.30;92.10;;;;;;5089381;28;20176;-60
2022/08/28 12:27:59;;;;;;;7.03;6.43;;;23.20;85.90;;;;;;5088070;28;20227;-60
2022/08/28 12:30:31;;;;;;;7.33;6.63;;;23.10;89.50;;;;;;5112676;28;20211;-60
2022/08/28 12:33:13;;;;;;;10.20;7.57;;;23.10;90.80;;;;;;5098838;28;20177;-61
2022/08/28 12:35:39;;;;;;;9.70;7.23;;;23.20;88.70;;;;;;5107746;28;20267;-60
2022/08/28 12:38:08;;;;;;;7.70;6.90;;;23.10;89.90;;;;;;5094526;28;20180;-60
2022/08/28 12:40:36;;;;;;;7.23;6.57;;;23.10;90.30;;;;;;5117501;28;20188;-60
2022/08/28 12:43:12;;;;;;;10.37;7.50;;;23.20;88.40;;;;;;5088804;28;20320;-60
2022/08/28 12:45:44;;;;;;;6.83;6.23;;;23.20;90.30;;;;;;5075158;28;20204;-60
2022/08/28 12:48:23;;;;;;;7.20;6.40;;;23.40;88.90;;;;;;5109946;27;20207;-60
2022/08/28 12:50:58;;;;;;;9.20;7.20;;;23.60;86.40;;;;;;5094644;28;20207;-60
2022/08/28 12:53:24;;;;;;;8.00;6.37;;;23.80;86.50;;;;;;5094835;28;20184;-60
2022/08/28 12:55:50;;;;;;;7.20;6.50;;;24.30;84.30;;;;;;5057224;28;20185;-60
2022/08/28 12:58:32;;;;;;;8.30;6.77;;;24.80;83.20;;;;;;5057384;28;20272;-60
2022/08/28 13:01:05;;;;;;;6.67;5.97;;;25.30;82.30;;;;;;5093977;28;20192;-60